Time;durP1;ratioP1;P1;durP2;ratioP2;P2;SDS_P1;SDS_P2;PMS_P1;PMS_P2;Temp;Humidity;BMP_temperature;BMP_pressure;BME280_temperature;BME280_humidity;BME280_pressure;Samples;Min_cycle;Max_cycle;Signal;HPM_P1;HPM_P2
2023/07/04 00:00:38;;;;;;;;;;;;;;;13.40;100.00;101136.03;5083695;28;19916;-52
2023/07/04 00:03:03;;;;;;;;;;;;;;;13.35;100.00;101127.34;5066106;28;20006;-49
2023/07/04 00:05:29;;;;;;;;;;;;;;;13.31;100.00;101126.38;5072583;28;19974;-49
2023/07/04 00:07:54;;;;;;;;;;;;;;;13.27;100.00;101121.97;5078384;28;19920;-51
2023/07/04 00:10:20;;;;;;;;;;;;;;;13.23;100.00;101120.19;5062799;28;20843;-50
2023/07/04 00:12:45;;;;;;;;;;;;;;;13.20;100.00;101121.78;5081239;28;19920;-51
2023/07/04 00:15:11;;;;;;;;;;;;;;;13.13;100.00;101120.78;5075966;28;19923;-47
2023/07/04 00:17:36;;;;;;;;;;;;;;;13.04;100.00;101112.84;5062297;28;19927;-48
2023/07/04 00:20:03;;;;;;;;;;;;;;;12.99;100.00;101119.63;5080045;28;19935;-46
2023/07/04 00:22:28;;;;;;;;;;;;;;;12.94;100.00;101118.66;5068072;28;19925;-50
2023/07/04 00:24:56;;;;;;;;;;;;;;;12.96;100.00;101124.72;5057098;28;19970;-48
2023/07/04 00:27:23;;;;;;;;;;;;;;;13.00;100.00;101113.63;5076004;28;19920;-46
2023/07/04 00:29:50;;;;;;;;;;;;;;;13.00;100.00;101111.03;5076684;28;19981;-45
2023/07/04 00:32:15;;;;;;;;;;;;;;;12.98;100.00;101102.38;5081216;28;19928;-48
2023/07/04 00:34:45;;;;;;;;;;;;;;;12.93;100.00;101106.59;5061430;28;19924;-47
2023/07/04 00:37:10;;;;;;;;;;;;;;;12.87;100.00;101104.75;5080022;28;20382;-48
2023/07/04 00:39:37;;;;;;;;;;;;;;;12.80;100.00;101103.72;5082871;28;19920;-49
2023/07/04 00:42:07;;;;;;;;;;;;;;;12.75;100.00;101100.16;5080937;28;19930;-47
2023/07/04 00:44:37;;;;;;;;;;;;;;;12.72;100.00;101100.09;5081611;28;19974;-48
2023/07/04 00:47:07;;;;;;;;;;;;;;;12.72;100.00;101100.09;5085925;28;19970;-47
2023/07/04 00:49:57;;;;;;;;;;;;;;;12.67;100.00;101100.81;5076202;28;21837;-49
2023/07/04 00:52:25;;;;;;;;;;;;;;;12.62;100.00;101103.31;5079971;28;19985;-48
2023/07/04 00:54:57;;;;;;;;;;;;;;;12.58;100.00;101099.78;5083044;28;19928;-48
2023/07/04 00:57:25;;;;;;;;;;;;;;;12.53;100.00;101097.91;5079716;28;20290;-49
2023/07/04 00:59:52;;;;;;;;;;;;;;;12.49;100.00;101098.66;5081722;28;19924;-49
2023/07/04 01:02:19;;;;;;;;;;;;;;;12.47;100.00;101097.78;5077268;28;19955;-48
2023/07/04 01:04:46;;;;;;;;;;;;;;;12.43;100.00;101101.09;5083475;28;19916;-48
2023/07/04 01:07:24;;;;;;;;;;;;;;;12.41;100.00;101098.50;5080073;28;19924;-48
2023/07/04 01:09:59;;;;;;;;;;;;;;;12.40;100.00;101101.03;5083456;28;19925;-48
2023/07/04 01:12:27;;;;;;;;;;;;;;;12.40;100.00;101098.47;5079191;28;19927;-51
2023/07/04 01:14:53;;;;;;;;;;;;;;;12.45;100.00;101100.31;5085377;28;20003;-51
2023/07/04 01:17:19;;;;;;;;;;;;;;;12.54;100.00;101099.66;5063093;28;20010;-50
2023/07/04 01:19:45;;;;;;;;;;;;;;;12.63;100.00;101101.59;5085535;28;19963;-47
2023/07/04 01:22:14;;;;;;;;;;;;;;;12.66;100.00;101102.53;5080937;28;19924;-49
2023/07/04 01:24:59;;;;;;;;;;;;;;;12.66;100.00;101104.22;5061804;28;20312;-50
2023/07/04 01:27:26;;;;;;;;;;;;;;;12.68;100.00;101098.28;5079919;28;19916;-51
2023/07/04 01:29:51;;;;;;;;;;;;;;;12.71;100.00;101098.34;5080895;28;19967;-52
2023/07/04 01:32:17;;;;;;;;;;;;;;;12.76;100.00;101106.19;5078787;28;19928;-50
2023/07/04 01:34:43;;;;;;;;;;;;;;;12.83;100.00;101106.38;5081624;28;19950;-51
2023/07/04 01:37:08;;;;;;;;;;;;;;;12.85;100.00;101099.53;5078055;28;20479;-49
2023/07/04 01:39:33;;;;;;;;;;;;;;;12.86;100.00;101098.72;5083972;28;19932;-48
2023/07/04 01:42:00;;;;;;;;;;;;;;;12.94;100.00;101100.59;5067391;28;19916;-48
2023/07/04 01:44:25;;;;;;;;;;;;;;;12.96;100.00;101101.47;5084695;28;19969;-50
2023/07/04 01:46:51;;;;;;;;;;;;;;;13.05;100.00;101102.56;5081388;28;19959;-51
2023/07/04 01:49:17;;;;;;;;;;;;;;;13.10;100.00;101102.63;5081095;28;19917;-47
2023/07/04 01:51:43;;;;;;;;;;;;;;;13.18;100.00;101101.13;5081807;28;19949;-51
2023/07/04 01:54:09;;;;;;;;;;;;;;;13.27;100.00;101097.88;5086733;28;19956;-51
2023/07/04 01:56:35;;;;;;;;;;;;;;;13.33;100.00;101101.44;5065868;28;19974;-50
2023/07/04 01:59:01;;;;;;;;;;;;;;;13.40;100.00;101110.19;5085114;28;19936;-48
2023/07/04 02:01:26;;;;;;;;;;;;;;;13.46;100.00;101102.56;5084443;28;19927;-52
2023/07/04 02:03:52;;;;;;;;;;;;;;;13.56;100.00;101108.81;5070245;28;19927;-51
2023/07/04 02:06:17;;;;;;;;;;;;;;;13.65;100.00;101108.97;5076554;28;19930;-48
2023/07/04 02:08:42;;;;;;;;;;;;;;;13.66;100.00;101110.72;5086265;28;20010;-52
2023/07/04 02:11:08;;;;;;;;;;;;;;;13.72;100.00;101095.34;5083523;28;19932;-51
2023/07/04 02:13:33;;;;;;;;;;;;;;;13.75;99.88;101095.38;5092695;28;20583;-49
2023/07/04 02:15:58;;;;;;;;;;;;;;;13.80;99.22;101104.09;5072544;28;19923;-47
2023/07/04 02:18:25;;;;;;;;;;;;;;;13.84;100.00;101105.91;5051087;28;19920;-50
2023/07/04 02:20:50;;;;;;;;;;;;;;;13.85;100.00;101107.66;5089265;28;19916;-46
2023/07/04 02:23:15;;;;;;;;;;;;;;;13.86;100.00;101118.84;5077378;28;19973;-49
2023/07/04 02:25:41;;;;;;;;;;;;;;;13.88;100.00;101122.34;5083889;28;19923;-50
2023/07/04 02:28:07;;;;;;;;;;;;;;;13.88;100.00;101109.41;5086264;28;19923;-48
2023/07/04 02:30:32;;;;;;;;;;;;;;;13.84;100.00;101110.22;5079380;28;20019;-49
2023/07/04 02:32:58;;;;;;;;;;;;;;;13.81;100.00;101125.66;5078742;28;20359;-47
2023/07/04 02:35:23;;;;;;;;;;;;;;;13.69;100.00;101114.22;5073649;28;20015;-48
2023/07/04 02:37:48;;;;;;;;;;;;;;;13.63;100.00;101114.09;5074142;28;19936;-49
2023/07/04 02:40:13;;;;;;;;;;;;;;;13.55;100.00;101107.94;5082900;28;19924;-48
2023/07/04 02:42:39;;;;;;;;;;;;;;;13.52;100.00;101112.16;5066873;28;19959;-48
2023/07/04 02:45:06;;;;;;;;;;;;;;;13.47;100.00;101108.59;5083376;28;20029;-48
2023/07/04 02:47:32;;;;;;;;;;;;;;;13.48;100.00;101115.53;5084266;28;19920;-46
2023/07/04 02:49:57;;;;;;;;;;;;;;;13.48;100.00;101107.78;5084714;28;19978;-48
2023/07/04 02:52:23;;;;;;;;;;;;;;;13.47;100.00;101106.91;5087185;28;19928;-47
2023/07/04 02:54:49;;;;;;;;;;;;;;;13.49;100.00;101107.81;5082652;28;19924;-48
2023/07/04 02:57:15;;;;;;;;;;;;;;;13.48;100.00;101095.75;5084491;28;19939;-47
2023/07/04 02:59:41;;;;;;;;;;;;;;;13.50;100.00;101101.78;5084916;28;19931;-47
2023/07/04 03:02:06;;;;;;;;;;;;;;;13.46;100.00;101106.88;5085897;28;19916;-47
2023/07/04 03:04:32;;;;;;;;;;;;;;;13.40;100.00;101100.72;5078124;28;19959;-48
2023/07/04 03:06:57;;;;;;;;;;;;;;;13.37;100.00;101116.19;5085681;28;19920;-47
2023/07/04 03:09:23;;;;;;;;;;;;;;;13.34;100.00;101107.47;5083857;28;20378;-47
2023/07/04 03:11:48;;;;;;;;;;;;;;;13.32;100.00;101104.00;5086734;28;19928;-49
2023/07/04 03:14:13;;;;;;;;;;;;;;;13.32;100.00;101110.03;5083172;28;19960;-47
2023/07/04 03:16:38;;;;;;;;;;;;;;;13.31;100.00;101113.47;5084139;28;20573;-48
2023/07/04 03:19:04;;;;;;;;;;;;;;;13.33;100.00;101108.31;5075066;28;19947;-47
2023/07/04 03:21:29;;;;;;;;;;;;;;;13.31;100.00;101107.44;5082712;28;19924;-51
2023/07/04 03:23:54;;;;;;;;;;;;;;;13.34;100.00;101115.22;5083256;28;19932;-49
2023/07/04 03:26:20;;;;;;;;;;;;;;;13.32;100.00;101109.19;5079268;28;19923;-51
2023/07/04 03:28:45;;;;;;;;;;;;;;;13.30;100.00;101114.31;5084319;28;19969;-51
2023/07/04 03:31:10;;;;;;;;;;;;;;;13.29;100.00;101115.16;5084350;28;19959;-50
2023/07/04 03:33:36;;;;;;;;;;;;;;;13.24;100.00;101111.59;5081149;28;19960;-51
2023/07/04 03:36:01;;;;;;;;;;;;;;;13.23;100.00;101111.59;5081557;28;19924;-49
2023/07/04 03:38:26;;;;;;;;;;;;;;;13.25;100.00;101120.22;5079765;28;20026;-50
2023/07/04 03:40:52;;;;;;;;;;;;;;;13.21;100.00;101120.97;5073472;28;19944;-50
2023/07/04 03:43:17;;;;;;;;;;;;;;;13.18;100.00;101121.78;5070763;28;19959;-52
2023/07/04 03:45:46;;;;;;;;;;;;;;;13.19;100.00;101120.94;5073708;28;19926;-47
2023/07/04 03:48:11;;;;;;;;;;;;;;;13.17;100.00;101124.31;5075369;28;19932;-51
2023/07/04 03:50:38;;;;;;;;;;;;;;;13.16;100.00;101123.44;5074441;28;19924;-50
2023/07/04 03:53:03;;;;;;;;;;;;;;;13.15;100.00;101125.13;5078040;28;20708;-49
2023/07/04 03:55:28;;;;;;;;;;;;;;;13.13;100.00;101125.97;5059008;28;20678;-49
2023/07/04 03:57:54;;;;;;;;;;;;;;;13.12;100.00;101122.50;5078737;28;20281;-48
2023/07/04 04:00:19;;;;;;;;;;;;;;;13.10;100.00;101125.88;5073362;28;19928;-49
2023/07/04 04:02:44;;;;;;;;;;;;;;;13.10;100.00;101129.34;5071639;28;19921;-48
2023/07/04 04:05:10;;;;;;;;;;;;;;;13.07;100.00;101129.28;5062757;28;19933;-51
2023/07/04 04:07:35;;;;;;;;;;;;;;;13.09;100.00;101127.59;5079946;28;19927;-49
2023/07/04 04:10:00;;;;;;;;;;;;;;;13.11;100.00;101132.81;5064740;28;19982;-51
2023/07/04 04:12:25;;;;;;;;;;;;;;;13.12;100.00;101131.97;5072125;28;19925;-50
2023/07/04 04:14:51;;;;;;;;;;;;;;;13.13;100.00;101131.13;5076408;28;19924;-50
2023/07/04 04:17:16;;;;;;;;;;;;;;;13.11;100.00;101136.25;5072599;28;20335;-51
2023/07/04 04:19:41;;;;;;;;;;;;;;;13.12;100.00;101138.00;5081592;28;19924;-52
2023/07/04 04:22:06;;;;;;;;;;;;;;;13.12;100.00;101131.97;5081822;28;19920;-51
2023/07/04 04:24:32;;;;;;;;;;;;;;;13.14;100.00;101135.44;5089042;28;19931;-48
2023/07/04 04:27:00;;;;;;;;;;;;;;;13.15;100.00;101126.84;5068740;28;20116;-53
2023/07/04 04:29:28;;;;;;;;;;;;;;;13.22;100.00;101130.47;5066325;28;20007;-49
2023/07/04 04:31:53;;;;;;;;;;;;;;;13.34;100.00;101136.75;5064232;28;19924;-49
2023/07/04 04:34:20;;;;;;;;;;;;;;;13.60;100.00;101142.50;5071388;28;20196;-49
2023/07/04 04:36:46;;;;;;;;;;;;;;;13.95;100.00;101143.19;5098293;28;19928;-52
2023/07/04 04:39:11;;;;;;;;;;;;;;;14.21;100.00;101146.22;5102358;27;19950;-52
2023/07/04 04:41:36;;;;;;;;;;;;;;;14.43;100.00;101151.75;5102564;28;19927;-49
2023/07/04 04:44:02;;;;;;;;;;;;;;;14.63;100.00;101152.13;5105208;28;19965;-53
2023/07/04 04:46:28;;;;;;;;;;;;;;;14.80;100.00;101147.19;5100417;27;19920;-50
2023/07/04 04:48:53;;;;;;;;;;;;;;;15.04;100.00;101152.75;5104743;27;19972;-51
2023/07/04 04:51:18;;;;;;;;;;;;;;;15.23;100.00;101153.91;5099948;28;20007;-51
2023/07/04 04:53:44;;;;;;;;;;;;;;;15.33;100.00;101155.75;5104034;27;20521;-51
2023/07/04 04:56:10;;;;;;;;;;;;;;;15.53;100.00;101150.81;5080459;28;19928;-49
2023/07/04 04:58:36;;;;;;;;;;;;;;;15.80;100.00;101158.09;5103796;27;19919;-50
2023/07/04 05:01:27;;;;;;;;;;;;;;;15.99;98.82;101166.94;5099483;27;19955;-48
2023/07/04 05:03:54;;;;;;;;;;;;;;;16.22;97.50;101154.22;5099652;27;19915;-51
2023/07/04 05:06:20;;;;;;;;;;;;;;;16.41;96.06;101161.31;5080891;27;19939;-52
2023/07/04 05:08:46;;;;;;;;;;;;;;;16.63;94.61;101158.03;5104160;28;19916;-48
2023/07/04 05:11:11;;;;;;;;;;;;;;;16.68;94.04;101159.78;5103351;27;19927;-49
2023/07/04 05:13:37;;;;;;;;;;;;;;;16.68;94.09;101154.59;5102148;27;20019;-51
2023/07/04 05:16:07;;;;;;;;;;;;;;;16.69;93.34;101157.22;5101321;27;19922;-49
2023/07/04 05:18:34;;;;;;;;;;;;;;;16.52;93.84;101164.00;5106039;27;19916;-52
2023/07/04 05:21:06;;;;;;;;;;;;;;;16.54;94.40;101157.94;5096876;27;19927;-49
2023/07/04 05:23:33;;;;;;;;;;;;;;;16.70;92.74;101163.28;5098416;28;20018;-48
2023/07/04 05:26:03;;;;;;;;;;;;;;;16.83;92.60;101167.75;5103873;27;19916;-48
2023/07/04 05:28:29;;;;;;;;;;;;;;;16.85;91.24;101168.59;5101417;28;19934;-48
2023/07/04 05:31:01;;;;;;;;;;;;;;;16.74;92.17;101165.91;5101416;27;19924;-46
2023/07/04 05:33:27;;;;;;;;;;;;;;;16.63;92.88;101173.63;5101703;28;19960;-48
2023/07/04 05:36:11;;;;;;;;;;;;;;;16.77;92.53;101167.69;5082392;28;19924;-47
2023/07/04 05:38:37;;;;;;;;;;;;;;;16.97;92.42;101173.88;5104486;28;20002;-48
2023/07/04 05:41:02;;;;;;;;;;;;;;;17.28;91.02;101172.34;5107491;27;20003;-48
2023/07/04 05:43:28;;;;;;;;;;;;;;;17.27;89.33;101170.59;5096671;27;20420;-47
2023/07/04 05:45:54;;;;;;;;;;;;;;;17.31;88.53;101197.50;5098886;28;19931;-49
2023/07/04 05:48:19;;;;;;;;;;;;;;;17.33;89.71;101178.44;5097959;27;20346;-50
2023/07/04 05:50:55;;;;;;;;;;;;;;;17.37;89.46;101176.72;5098094;27;20377;-46
2023/07/04 05:53:22;;;;;;;;;;;;;;;17.32;87.89;101189.69;5102171;27;19919;-50
2023/07/04 05:55:48;;;;;;;;;;;;;;;17.24;88.90;101183.59;5101768;27;19968;-48
2023/07/04 05:58:13;;;;;;;;;;;;;;;17.31;89.17;101187.09;5100695;27;19957;-48
2023/07/04 06:00:38;;;;;;;;;;;;;;;17.30;88.23;101182.78;5106088;28;19945;-48
2023/07/04 06:03:03;;;;;;;;;;;;;;;17.39;86.80;101191.47;5101655;27;19924;-51
2023/07/04 06:05:29;;;;;;;;;;;;;;;17.39;88.10;101185.41;5099437;27;19997;-47
2023/07/04 06:07:55;;;;;;;;;;;;;;;17.50;86.81;101188.94;5101601;27;19920;-49
2023/07/04 06:10:20;;;;;;;;;;;;;;;17.52;86.54;101191.53;5096973;27;19928;-47
2023/07/04 06:12:46;;;;;;;;;;;;;;;17.51;87.89;101193.25;5102940;28;19920;-48
2023/07/04 06:15:11;;;;;;;;;;;;;;;17.70;86.58;101205.47;5102483;27;19931;-48
2023/07/04 06:17:36;;;;;;;;;;;;;;;17.69;82.91;101202.88;5083151;28;19928;-47
2023/07/04 06:20:02;;;;;;;;;;;;;;;17.84;84.93;101197.78;5102067;28;19935;-46
2023/07/04 06:22:27;;;;;;;;;;;;;;;18.06;84.93;101205.63;5102243;27;20010;-48
2023/07/04 06:24:53;;;;;;;;;;;;;;;18.36;82.65;101210.03;5099350;28;20298;-49
2023/07/04 06:27:18;;;;;;;;;;;;;;;18.63;81.56;101217.03;5081866;28;19927;-47
2023/07/04 06:29:46;;;;;;;;;;;;;;;18.72;80.51;101215.31;5093277;28;19927;-48
2023/07/04 06:32:11;;;;;;;;;;;;;;;18.57;80.86;101212.69;5097174;27;19992;-48
2023/07/04 06:34:36;;;;;;;;;;;;;;;18.76;82.78;101218.81;5101459;27;20378;-47
2023/07/04 06:37:02;;;;;;;;;;;;;;;18.81;78.75;101213.56;5089213;28;19970;-45
2023/07/04 06:39:27;;;;;;;;;;;;;;;18.89;80.09;101217.06;5092489;28;20366;-46
2023/07/04 06:41:52;;;;;;;;;;;;;;;18.94;79.87;101225.75;5069614;28;19994;-47
2023/07/04 06:44:17;;;;;;;;;;;;;;;18.98;79.12;101219.66;5086635;28;20435;-47
2023/07/04 06:46:44;;;;;;;;;;;;;;;19.06;79.69;101227.47;5091459;28;20211;-47
2023/07/04 06:49:09;;;;;;;;;;;;;;;19.15;78.87;101223.09;5091000;28;19932;-48
2023/07/04 06:51:34;;;;;;;;;;;;;;;19.12;77.06;101222.25;5084392;28;20032;-47
2023/07/04 06:54:00;;;;;;;;;;;;;;;19.08;72.59;101226.59;5089262;28;19920;-48
2023/07/04 06:56:25;;;;;;;;;;;;;;;19.00;74.94;101228.34;5089096;28;19962;-48
2023/07/04 06:58:52;;;;;;;;;;;;;;;18.77;77.78;101232.69;5085118;28;19920;-49
2023/07/04 07:01:18;;;;;;;;;;;;;;;18.83;77.21;101236.16;5089509;28;19916;-46
2023/07/04 07:03:44;;;;;;;;;;;;;;;19.00;76.77;101238.78;5082407;28;20188;-49
2023/07/04 07:06:10;;;;;;;;;;;;;;;19.26;75.78;101233.53;5088941;28;19955;-48
2023/07/04 07:08:36;;;;;;;;;;;;;;;19.34;72.19;101239.59;5089468;28;19916;-47
2023/07/04 07:11:05;;;;;;;;;;;;;;;19.20;73.12;101239.63;5088228;28;19920;-50
2023/07/04 07:13:30;;;;;;;;;;;;;;;19.02;74.74;101248.31;5093877;28;19920;-50
2023/07/04 07:16:05;;;;;;;;;;;;;;;19.01;74.09;101238.78;5092383;28;19996;-47
2023/07/04 07:18:32;;;;;;;;;;;;;;;18.96;72.85;101234.44;5093157;28;19927;-45
2023/07/04 07:20:58;;;;;;;;;;;;;;;19.02;69.62;101247.47;5089556;28;20038;-44
2023/07/04 07:23:23;;;;;;;;;;;;;;;19.01;72.09;101235.28;5090523;28;20324;-44
2023/07/04 07:25:55;;;;;;;;;;;;;;;19.14;72.83;101250.06;5074098;28;19923;-45
2023/07/04 07:28:21;;;;;;;;;;;;;;;19.14;71.02;101250.06;5087404;28;19972;-45
2023/07/04 07:30:46;;;;;;;;;;;;;;;19.24;69.76;101246.56;5086652;28;20348;-44
2023/07/04 07:33:11;;;;;;;;;;;;;;;19.01;72.78;101261.34;5090533;28;19916;-44
2023/07/04 07:35:36;;;;;;;;;;;;;;;19.11;70.49;101252.69;5094798;28;19927;-46
2023/07/04 07:38:02;;;;;;;;;;;;;;;19.26;70.73;101251.78;5086365;28;19920;-45
2023/07/04 07:40:27;;;;;;;;;;;;;;;19.32;70.36;101254.38;5087370;28;20019;-45
2023/07/04 07:42:53;;;;;;;;;;;;;;;19.38;69.19;101251.75;5092870;28;19921;-45
2023/07/04 07:45:18;;;;;;;;;;;;;;;19.59;68.17;101261.28;5093538;28;19923;-44
2023/07/04 07:47:43;;;;;;;;;;;;;;;19.81;69.84;101262.09;5099601;28;19933;-43
2023/07/04 07:50:09;;;;;;;;;;;;;;;20.14;68.69;101262.81;5089737;28;19926;-45
2023/07/04 07:52:34;;;;;;;;;;;;;;;20.20;69.86;101255.81;5093352;28;19934;-44
2023/07/04 07:54:59;;;;;;;;;;;;;;;20.37;65.90;101268.78;5098227;28;19943;-45
2023/07/04 07:57:24;;;;;;;;;;;;;;;20.24;60.58;101269.75;5094471;28;19920;-44
2023/07/04 07:59:50;;;;;;;;;;;;;;;20.22;63.52;101263.66;5090222;28;19948;-46
2023/07/04 08:02:15;;;;;;;;;;;;;;;20.09;63.81;101265.47;5093167;28;19927;-48
2023/07/04 08:04:41;;;;;;;;;;;;;;;20.05;66.63;101268.97;5093798;28;20593;-44
2023/07/04 08:07:07;;;;;;;;;;;;;;;20.02;63.48;101262.03;5098355;28;19951;-45
2023/07/04 08:09:32;;;;;;;;;;;;;;;20.12;64.70;101259.34;5097291;28;20593;-49
2023/07/04 08:11:57;;;;;;;;;;;;;;;20.19;60.05;101280.19;5070088;28;19924;-50
2023/07/04 08:14:24;;;;;;;;;;;;;;;20.08;62.05;101274.16;5095114;28;19916;-49
2023/07/04 08:16:50;;;;;;;;;;;;;;;19.88;61.73;101270.78;5092872;28;19926;-47
2023/07/04 08:19:17;;;;;;;;;;;;;;;19.77;62.79;101269.06;5095150;28;20385;-46
2023/07/04 08:21:42;;;;;;;;;;;;;;;19.71;60.44;101271.69;5084098;28;19924;-49
2023/07/04 08:24:10;;;;;;;;;;;;;;;19.72;58.35;101268.22;5087802;28;19916;-45
2023/07/04 08:26:36;;;;;;;;;;;;;;;19.90;59.56;101276.84;5091308;28;19920;-47
2023/07/04 08:29:02;;;;;;;;;;;;;;;20.00;59.29;101276.81;5090680;28;20055;-47
2023/07/04 08:31:27;;;;;;;;;;;;;;;19.98;58.92;101278.56;5094274;28;20397;-49
2023/07/04 08:33:53;;;;;;;;;;;;;;;20.00;58.36;101268.97;5093672;28;19916;-47
2023/07/04 08:36:18;;;;;;;;;;;;;;;20.17;58.66;101265.44;5087935;28;19924;-49
2023/07/04 08:38:46;;;;;;;;;;;;;;;20.49;56.53;101252.22;5090042;28;19923;-49
2023/07/04 08:41:19;;;;;;;;;;;;;;;20.87;57.03;101268.50;5072556;28;19924;-51
2023/07/04 08:43:48;;;;;;;;;;;;;;;21.15;57.13;101256.03;5085221;28;19927;-47
2023/07/04 08:46:17;;;;;;;;;;;;;;;21.38;52.93;101255.84;5086652;28;19924;-46
2023/07/04 08:48:44;;;;;;;;;;;;;;;21.49;51.97;101253.13;5089964;28;19912;-46
2023/07/04 08:51:15;;;;;;;;;;;;;;;21.50;51.79;101264.47;5089289;28;19920;-48
2023/07/04 08:53:43;;;;;;;;;;;;;;;21.47;50.47;101274.94;5087533;28;19912;-47
2023/07/04 08:56:31;;;;;;;;;;;;;;;21.37;50.73;101275.03;5089976;28;19924;-46
2023/07/04 08:59:32;;;;;;;;;;;;;;;21.08;49.45;101277.91;5089183;28;20294;-46
2023/07/04 09:02:06;;;;;;;;;;;;;;;20.87;52.22;101278.94;5026659;28;19917;-50
2023/07/04 09:04:31;;;;;;;;;;;;;;;20.88;50.33;101280.69;5068472;28;19991;-48
2023/07/04 09:07:03;;;;;;;;;;;;;;;21.22;49.79;101279.50;5091554;28;19999;-49
2023/07/04 09:09:39;;;;;;;;;;;;;;;21.54;48.52;101292.34;5090314;28;20393;-46
2023/07/04 09:12:05;;;;;;;;;;;;;;;21.53;48.31;101288.81;5089784;28;19967;-47
2023/07/04 09:14:36;;;;;;;;;;;;;;;21.52;46.34;101294.94;5087497;28;20286;-46
2023/07/04 09:17:04;;;;;;;;;;;;;;;21.60;48.89;101305.34;5091648;28;20298;-45
2023/07/04 09:19:33;;;;;;;;;;;;;;;21.66;47.27;101308.78;5081541;28;20378;-46
2023/07/04 09:21:58;;;;;;;;;;;;;;;21.68;48.71;101298.28;5091309;28;19916;-47
2023/07/04 09:24:23;;;;;;;;;;;;;;;21.74;49.26;101298.22;5088583;28;19928;-46
2023/07/04 09:26:52;;;;;;;;;;;;;;;21.85;48.95;101306.81;5089057;28;20396;-46
2023/07/04 09:29:22;;;;;;;;;;;;;;;21.93;47.71;101306.72;5089705;28;19912;-47
2023/07/04 09:31:53;;;;;;;;;;;;;;;22.08;46.07;101303.03;5094470;28;19916;-46
2023/07/04 09:34:36;;;;;;;;;;;;;;;22.26;47.79;101313.31;5090734;28;20048;-45
2023/07/04 09:37:08;;;;;;;;;;;;;;;22.33;43.74;101308.88;5097915;27;19926;-48
2023/07/04 09:39:50;;;;;;;;;;;;;;;22.05;44.03;101316.19;5095329;28;20370;-45
2023/07/04 09:42:17;;;;;;;;;;;;;;;21.87;44.33;101314.63;5100717;28;19963;-49
2023/07/04 09:44:42;;;;;;;;;;;;;;;21.76;44.47;101306.91;5093327;28;19958;-49
2023/07/04 09:47:12;;;;;;;;;;;;;;;21.69;44.88;101307.84;5100337;28;19920;-47
2023/07/04 09:49:38;;;;;;;;;;;;;;;21.67;45.72;101307.88;5099725;28;20282;-48
2023/07/04 09:52:09;;;;;;;;;;;;;;;21.75;45.44;101299.06;5087580;28;19924;-48
2023/07/04 09:54:36;;;;;;;;;;;;;;;21.89;46.34;101308.50;5090030;28;20439;-48
2023/07/04 09:57:15;;;;;;;;;;;;;;;21.92;46.03;101312.84;5099057;28;19916;-47
2023/07/04 09:59:41;;;;;;;;;;;;;;;21.85;45.68;101305.94;5095105;27;19918;-47
2023/07/04 10:02:36;;;;;;;;;;;;;;;21.80;47.16;101307.75;5102694;27;20283;-49
2023/07/04 10:05:01;;;;;;;;;;;;;;;21.79;46.41;101312.13;5086331;28;20014;-47
2023/07/04 10:07:27;;;;;;;;;;;;;;;21.90;44.14;101299.78;5102652;27;20027;-45
2023/07/04 10:09:52;;;;;;;;;;;;;;;21.99;46.06;101298.78;5101537;28;19916;-49
2023/07/04 10:12:18;;;;;;;;;;;;;;;22.32;46.18;101307.13;5102075;28;19973;-48
2023/07/04 10:14:52;;;;;;;;;;;;;;;22.58;44.77;101309.41;5104460;27;19923;-49
2023/07/04 10:17:20;;;;;;;;;;;;;;;22.68;43.23;101316.22;5099812;27;19923;-49
2023/07/04 10:19:47;;;;;;;;;;;;;;;22.71;44.16;101310.94;5108914;27;20435;-49
2023/07/04 10:22:21;;;;;;;;;;;;;;;22.56;44.66;101317.25;5102110;28;19924;-48
2023/07/04 10:24:48;;;;;;;;;;;;;;;22.31;44.10;101310.63;5100384;27;20649;-48
2023/07/04 10:27:13;;;;;;;;;;;;;;;22.23;44.69;101318.59;5081052;28;19959;-48
2023/07/04 10:29:46;;;;;;;;;;;;;;;22.43;45.63;101315.72;5083641;28;20378;-49
2023/07/04 10:32:15;;;;;;;;;;;;;;;22.65;43.71;101311.03;5084682;28;19920;-49
2023/07/04 10:34:42;;;;;;;;;;;;;;;22.77;42.81;101325.72;5097619;27;19912;-50
2023/07/04 10:37:12;;;;;;;;;;;;;;;22.73;42.50;101315.25;5081380;28;19955;-47
2023/07/04 10:39:38;;;;;;;;;;;;;;;22.45;42.67;101320.06;5074802;28;19917;-47
2023/07/04 10:42:11;;;;;;;;;;;;;;;22.32;42.92;101315.84;5066156;28;19917;-47
2023/07/04 10:44:37;;;;;;;;;;;;;;;22.15;42.92;101315.22;5077095;28;19928;-46
2023/07/04 10:47:10;;;;;;;;;;;;;;;22.25;42.46;101319.44;5072670;28;20375;-47
2023/07/04 10:49:39;;;;;;;;;;;;;;;22.38;42.28;101313.13;5064071;28;19927;-49
2023/07/04 10:52:09;;;;;;;;;;;;;;;22.62;43.56;101321.56;5067989;28;19964;-48
2023/07/04 10:54:34;;;;;;;;;;;;;;;22.75;43.17;101321.38;5071331;28;19923;-49
2023/07/04 10:57:20;;;;;;;;;;;;;;;22.63;42.23;101323.28;5069647;28;19917;-50
2023/07/04 10:59:47;;;;;;;;;;;;;;;22.34;42.25;101313.22;5046218;28;21193;-51
2023/07/04 11:02:18;;;;;;;;;;;;;;;22.21;44.69;101317.75;5082858;28;20324;-48
2023/07/04 11:04:44;;;;;;;;;;;;;;;22.02;44.31;101319.69;5079002;28;19965;-50
2023/07/04 11:07:20;;;;;;;;;;;;;;;21.88;44.51;101317.22;5085729;28;20084;-47
2023/07/04 11:09:47;;;;;;;;;;;;;;;21.83;44.03;101316.41;5085501;28;19920;-47
2023/07/04 11:12:15;;;;;;;;;;;;;;;21.77;43.74;101313.00;5083891;28;19924;-47
2023/07/04 11:14:41;;;;;;;;;;;;;;;21.74;44.47;101313.91;5080825;28;20382;-51
2023/07/04 11:17:10;;;;;;;;;;;;;;;21.81;44.51;101320.81;5078735;28;20391;-49
2023/07/04 11:19:51;;;;;;;;;;;;;;;21.89;44.25;101308.50;5082695;28;19912;-48
2023/07/04 11:22:17;;;;;;;;;;;;;;;21.91;44.87;101311.97;5079065;28;20365;-51
2023/07/04 11:24:50;;;;;;;;;;;;;;;22.11;45.62;101305.66;5050903;28;19952;-50
2023/07/04 11:27:20;;;;;;;;;;;;;;;22.34;43.90;101308.00;5084842;28;19924;-50
2023/07/04 11:29:47;;;;;;;;;;;;;;;22.55;42.50;101307.69;5073939;28;19920;-48
2023/07/04 11:32:17;;;;;;;;;;;;;;;22.50;42.02;101317.34;5086357;28;19931;-48
2023/07/04 11:34:44;;;;;;;;;;;;;;;22.40;42.76;101315.75;5080732;28;19919;-50
2023/07/04 11:37:10;;;;;;;;;;;;;;;22.35;43.72;101309.72;5091758;28;19988;-50
2023/07/04 11:39:36;;;;;;;;;;;;;;;22.34;42.41;101313.22;5067799;28;19936;-47
2023/07/04 11:42:11;;;;;;;;;;;;;;;22.47;43.47;101310.41;5082359;28;19973;-50
2023/07/04 11:44:58;;;;;;;;;;;;;;;22.74;43.96;101314.38;5072990;28;19924;-48
2023/07/04 11:47:34;;;;;;;;;;;;;;;22.86;42.84;101310.69;5080646;28;20065;-48
2023/07/04 11:50:01;;;;;;;;;;;;;;;22.78;42.97;101316.97;5086764;28;19912;-50
2023/07/04 11:52:28;;;;;;;;;;;;;;;22.72;43.88;101316.16;5079335;28;20434;-49
2023/07/04 11:54:55;;;;;;;;;;;;;;;22.50;43.89;101312.09;5078699;28;20409;-48
2023/07/04 11:57:20;;;;;;;;;;;;;;;22.46;44.87;101308.69;5078692;28;20394;-49
2023/07/04 11:59:46;;;;;;;;;;;;;;;22.63;43.34;101312.78;5074668;28;20333;-50
2023/07/04 12:02:13;;;;;;;;;;;;;;;22.83;42.82;101305.53;5070422;28;19917;-50
2023/07/04 12:04:39;;;;;;;;;;;;;;;22.94;41.70;101301.00;5068496;28;19916;-49
2023/07/04 12:07:16;;;;;;;;;;;;;;;22.80;41.01;101299.44;5087769;28;19949;-49
2023/07/04 12:09:48;;;;;;;;;;;;;;;22.68;43.49;101303.13;5070713;28;19988;-50
2023/07/04 12:12:22;;;;;;;;;;;;;;;22.96;42.81;101296.59;5084599;28;20386;-48
2023/07/04 12:14:50;;;;;;;;;;;;;;;22.97;41.34;101308.81;5090698;28;20378;-50
2023/07/04 12:17:15;;;;;;;;;;;;;;;23.00;41.07;101300.91;5088245;28;19916;-49
2023/07/04 12:19:42;;;;;;;;;;;;;;;23.09;41.69;101297.25;5087828;28;19981;-51
2023/07/04 12:22:12;;;;;;;;;;;;;;;23.17;42.69;101295.34;5080446;28;19927;-52
2023/07/04 12:24:38;;;;;;;;;;;;;;;23.47;41.88;101287.84;5081541;28;19935;-50
2023/07/04 12:27:03;;;;;;;;;;;;;;;23.64;41.35;101287.56;5082729;28;20736;-48
2023/07/04 12:29:28;;;;;;;;;;;;;;;23.84;40.15;101284.53;5082655;28;21164;-49
2023/07/04 12:32:04;;;;;;;;;;;;;;;23.94;39.43;101288.72;5093023;28;20294;-51
2023/07/04 12:34:29;;;;;;;;;;;;;;;24.02;39.85;101292.91;5067305;28;19964;-57